sensor_id;sensor_type;location;lat;lon;timestamp;P1;durP1;ratioP1;P2;durP2;ratioP2
4903;SDS011;2467;48.142;11.616;2022-08-11T00:00:24;4.05;;;3.72;;
4903;SDS011;2467;48.142;11.616;2022-08-11T00:01:05;7.68;;;4.50;;
4903;SDS011;2467;48.142;11.616;2022-08-11T00:01:45;3.22;;;2.92;;
4903;SDS011;2467;48.142;11.616;2022-08-11T00:02:25;4.13;;;3.72;;
4903;SDS011;2467;48.142;11.616;2022-08-11T00:03:03;3.60;;;3.30;;
4903;SDS011;2467;48.142;11.616;2022-08-11T00:03:41;6.68;;;4.13;;
4903;SDS011;2467;48.142;11.616;2022-08-11T00:04:16;4.75;;;3.90;;
4903;SDS011;2467;48.142;11.616;2022-08-11T00:04:50;4.85;;;3.60;;
4903;SDS011;2467;48.142;11.616;2022-08-11T00:05:24;7.80;;;3.15;;
4903;SDS011;2467;48.142;11.616;2022-08-11T00:05:56;4.35;;;3.95;;
4903;SDS011;2467;48.142;11.616;2022-08-11T00:06:30;3.35;;;3.00;;
4903;SDS011;2467;48.142;11.616;2022-08-11T00:07:03;3.25;;;2.95;;
4903;SDS011;2467;48.142;11.616;2022-08-11T00:07:41;4.00;;;3.65;;
4903;SDS011;2467;48.142;11.616;2022-08-11T00:08:22;4.22;;;3.25;;
4903;SDS011;2467;48.142;11.616;2022-08-11T00:08:56;3.63;;;3.22;;
4903;SDS011;2467;48.142;11.616;2022-08-11T00:09:30;3.60;;;3.30;;
4903;SDS011;2467;48.142;11.616;2022-08-11T00:10:11;5.75;;;3.78;;
4903;SDS011;2467;48.142;11.616;2022-08-11T00:10:43;3.42;;;3.13;;
4903;SDS011;2467;48.142;11.616;2022-08-11T00:11:30;4.82;;;3.45;;
4903;SDS011;2467;48.142;11.616;2022-08-11T00:12:05;3.47;;;3.08;;
4903;SDS011;2467;48.142;11.616;2022-08-11T00:12:43;3.38;;;3.17;;
4903;SDS011;2467;48.142;11.616;2022-08-11T00:13:28;4.05;;;3.67;;
4903;SDS011;2467;48.142;11.616;2022-08-11T00:14:11;3.30;;;3.00;;
4903;SDS011;2467;48.142;11.616;2022-08-11T00:14:45;5.47;;;3.67;;
4903;SDS011;2467;48.142;11.616;2022-08-11T00:15:27;2.75;;;2.60;;
4903;SDS011;2467;48.142;11.616;2022-08-11T00:16:19;4.05;;;3.70;;
4903;SDS011;2467;48.142;11.616;2022-08-11T00:16:55;5.05;;;3.30;;
4903;SDS011;2467;48.142;11.616;2022-08-11T00:17:30;4.38;;;4.07;;
4903;SDS011;2467;48.142;11.616;2022-08-11T00:18:04;3.75;;;3.53;;
4903;SDS011;2467;48.142;11.616;2022-08-11T00:18:38;3.80;;;3.50;;
4903;SDS011;2467;48.142;11.616;2022-08-11T00:19:11;7.32;;;3.33;;
4903;SDS011;2467;48.142;11.616;2022-08-11T00:20:11;3.20;;;3.00;;
4903;SDS011;2467;48.142;11.616;2022-08-11T00:20:47;5.25;;;3.80;;
4903;SDS011;2467;48.142;11.616;2022-08-11T00:21:20;4.75;;;3.55;;
4903;SDS011;2467;48.142;11.616;2022-08-11T00:22:18;3.75;;;3.15;;
4903;SDS011;2467;48.142;11.616;2022-08-11T00:22:52;3.50;;;3.20;;
4903;SDS011;2467;48.142;11.616;2022-08-11T00:23:32;3.75;;;3.45;;
4903;SDS011;2467;48.142;11.616;2022-08-11T00:24:05;4.20;;;3.10;;
4903;SDS011;2467;48.142;11.616;2022-08-11T00:24:40;5.18;;;4.30;;
4903;SDS011;2467;48.142;11.616;2022-08-11T00:25:26;4.00;;;3.47;;
4903;SDS011;2467;48.142;11.616;2022-08-11T00:25:59;5.22;;;4.57;;
4903;SDS011;2467;48.142;11.616;2022-08-11T00:26:36;3.70;;;3.30;;
4903;SDS011;2467;48.142;11.616;2022-08-11T00:27:08;3.75;;;3.45;;
4903;SDS011;2467;48.142;11.616;2022-08-11T00:27:45;4.85;;;3.35;;
4903;SDS011;2467;48.142;11.616;2022-08-11T00:28:24;6.90;;;3.78;;
4903;SDS011;2467;48.142;11.616;2022-08-11T00:29:02;5.90;;;3.92;;
4903;SDS011;2467;48.142;11.616;2022-08-11T00:29:47;3.72;;;3.53;;
4903;SDS011;2467;48.142;11.616;2022-08-11T00:30:23;3.92;;;3.63;;
4903;SDS011;2467;48.142;11.616;2022-08-11T00:30:56;4.13;;;3.83;;
4903;SDS011;2467;48.142;11.616;2022-08-11T00:31:34;10.93;;;4.65;;
4903;SDS011;2467;48.142;11.616;2022-08-11T00:32:11;6.15;;;4.13;;
4903;SDS011;2467;48.142;11.616;2022-08-11T00:32:51;4.03;;;3.60;;
4903;SDS011;2467;48.142;11.616;2022-08-11T00:33:31;8.48;;;3.80;;
4903;SDS011;2467;48.142;11.616;2022-08-11T00:34:16;4.40;;;4.00;;
4903;SDS011;2467;48.142;11.616;2022-08-11T00:34:51;5.95;;;3.45;;
4903;SDS011;2467;48.142;11.616;2022-08-11T00:35:45;3.55;;;3.28;;
4903;SDS011;2467;48.142;11.616;2022-08-11T00:36:27;6.72;;;3.63;;
4903;SDS011;2467;48.142;11.616;2022-08-11T00:37:16;5.38;;;4.88;;
4903;SDS011;2467;48.142;11.616;2022-08-11T00:37:50;5.20;;;3.72;;
4903;SDS011;2467;48.142;11.616;2022-08-11T00:38:25;3.97;;;3.58;;
4903;SDS011;2467;48.142;11.616;2022-08-11T00:39:04;5.05;;;3.70;;
4903;SDS011;2467;48.142;11.616;2022-08-11T00:39:41;6.00;;;4.00;;
4903;SDS011;2467;48.142;11.616;2022-08-11T00:40:15;4.82;;;4.38;;
4903;SDS011;2467;48.142;11.616;2022-08-11T00:40:56;7.20;;;4.15;;
4903;SDS011;2467;48.142;11.616;2022-08-11T00:41:35;4.78;;;4.32;;
4903;SDS011;2467;48.142;11.616;2022-08-11T00:42:17;5.05;;;4.13;;
4903;SDS011;2467;48.142;11.616;2022-08-11T00:42:58;5.38;;;4.75;;
4903;SDS011;2467;48.142;11.616;2022-08-11T00:43:58;4.28;;;3.65;;
4903;SDS011;2467;48.142;11.616;2022-08-11T00:44:49;5.28;;;4.70;;
4903;SDS011;2467;48.142;11.616;2022-08-11T00:45:34;4.28;;;3.40;;
4903;SDS011;2467;48.142;11.616;2022-08-11T00:46:15;4.10;;;3.72;;
4903;SDS011;2467;48.142;11.616;2022-08-11T00:47:14;6.63;;;4.13;;
4903;SDS011;2467;48.142;11.616;2022-08-11T00:47:55;4.53;;;3.80;;
4903;SDS011;2467;48.142;11.616;2022-08-11T00:48:35;4.13;;;3.72;;
4903;SDS011;2467;48.142;11.616;2022-08-11T00:49:17;4.68;;;4.22;;
4903;SDS011;2467;48.142;11.616;2022-08-11T00:50:01;4.38;;;3.58;;
4903;SDS011;2467;48.142;11.616;2022-08-11T00:50:40;6.28;;;4.60;;
4903;SDS011;2467;48.142;11.616;2022-08-11T00:51:20;7.22;;;4.07;;
4903;SDS011;2467;48.142;11.616;2022-08-11T00:51:58;9.57;;;4.75;;
4903;SDS011;2467;48.142;11.616;2022-08-11T00:53:38;4.60;;;4.28;;
4903;SDS011;2467;48.142;11.616;2022-08-11T00:54:24;4.72;;;4.20;;
4903;SDS011;2467;48.142;11.616;2022-08-11T00:56:44;4.15;;;3.85;;
4903;SDS011;2467;48.142;11.616;2022-08-11T00:58:17;4.85;;;4.40;;
4903;SDS011;2467;48.142;11.616;2022-08-11T00:59:34;5.65;;;3.90;;
4903;SDS011;2467;48.142;11.616;2022-08-11T01:00:40;6.20;;;4.50;;
4903;SDS011;2467;48.142;11.616;2022-08-11T01:01:26;5.43;;;3.97;;
4903;SDS011;2467;48.142;11.616;2022-08-11T01:02:15;5.45;;;3.78;;
4903;SDS011;2467;48.142;11.616;2022-08-11T01:03:03;4.55;;;4.18;;
4903;SDS011;2467;48.142;11.616;2022-08-11T01:03:55;3.90;;;3.50;;
4903;SDS011;2467;48.142;11.616;2022-08-11T01:04:55;4.68;;;4.28;;
4903;SDS011;2467;48.142;11.616;2022-08-11T01:08:42;4.50;;;4.00;;
4903;SDS011;2467;48.142;11.616;2022-08-11T01:10:05;4.05;;;3.75;;
4903;SDS011;2467;48.142;11.616;2022-08-11T01:10:58;4.78;;;3.72;;
4903;SDS011;2467;48.142;11.616;2022-08-11T01:11:50;3.85;;;3.55;;
4903;SDS011;2467;48.142;11.616;2022-08-11T01:12:43;4.80;;;4.30;;
4903;SDS011;2467;48.142;11.616;2022-08-11T01:13:35;7.70;;;4.32;;
4903;SDS011;2467;48.142;11.616;2022-08-11T01:14:43;5.85;;;4.13;;
4903;SDS011;2467;48.142;11.616;2022-08-11T01:16:03;4.32;;;4.03;;
4903;SDS011;2467;48.142;11.616;2022-08-11T01:17:04;5.45;;;4.10;;
4903;SDS011;2467;48.142;11.616;2022-08-11T01:18:12;4.15;;;3.85;;
4903;SDS011;2467;48.142;11.616;2022-08-11T01:19:23;4.22;;;3.83;;
4903;SDS011;2467;48.142;11.616;2022-08-11T01:21:05;4.10;;;3.80;;
4903;SDS011;2467;48.142;11.616;2022-08-11T01:22:05;3.88;;;3.58;;
4903;SDS011;2467;48.142;11.616;2022-08-11T01:23:09;4.70;;;4.30;;
4903;SDS011;2467;48.142;11.616;2022-08-11T01:25:28;4.57;;;3.72;;
4903;SDS011;2467;48.142;11.616;2022-08-11T01:26:52;3.33;;;3.13;;
4903;SDS011;2467;48.142;11.616;2022-08-11T01:28:57;4.25;;;3.95;;
4903;SDS011;2467;48.142;11.616;2022-08-11T01:32:48;5.28;;;3.90;;
4903;SDS011;2467;48.142;11.616;2022-08-11T01:34:11;4.47;;;4.07;;
4903;SDS011;2467;48.142;11.616;2022-08-11T01:37:29;3.70;;;3.50;;
4903;SDS011;2467;48.142;11.616;2022-08-11T01:38:38;5.30;;;4.22;;
4903;SDS011;2467;48.142;11.616;2022-08-11T01:39:36;4.70;;;4.13;;
4903;SDS011;2467;48.142;11.616;2022-08-11T01:40:46;5.45;;;4.30;;
4903;SDS011;2467;48.142;11.616;2022-08-11T01:41:41;4.32;;;4.03;;
4903;SDS011;2467;48.142;11.616;2022-08-11T01:42:53;4.78;;;4.38;;
4903;SDS011;2467;48.142;11.616;2022-08-11T01:45:16;4.07;;;3.55;;
4903;SDS011;2467;48.142;11.616;2022-08-11T01:45:58;5.90;;;4.85;;
4903;SDS011;2467;48.142;11.616;2022-08-11T01:46:38;5.15;;;4.65;;
4903;SDS011;2467;48.142;11.616;2022-08-11T01:47:31;4.60;;;4.20;;
4903;SDS011;2467;48.142;11.616;2022-08-11T01:48:33;4.45;;;4.05;;
4903;SDS011;2467;48.142;11.616;2022-08-11T01:49:14;4.55;;;4.07;;
4903;SDS011;2467;48.142;11.616;2022-08-11T01:50:15;4.15;;;3.83;;
4903;SDS011;2467;48.142;11.616;2022-08-11T01:51:14;4.50;;;4.10;;
4903;SDS011;2467;48.142;11.616;2022-08-11T01:52:12;4.18;;;3.85;;
4903;SDS011;2467;48.142;11.616;2022-08-11T01:53:07;4.38;;;3.60;;
4903;SDS011;2467;48.142;11.616;2022-08-11T01:53:53;8.30;;;3.55;;
4903;SDS011;2467;48.142;11.616;2022-08-11T01:54:36;4.43;;;4.03;;
4903;SDS011;2467;48.142;11.616;2022-08-11T01:55:17;4.25;;;3.90;;
4903;SDS011;2467;48.142;11.616;2022-08-11T01:56:00;6.05;;;4.28;;
4903;SDS011;2467;48.142;11.616;2022-08-11T01:57:43;4.45;;;4.15;;
4903;SDS011;2467;48.142;11.616;2022-08-11T01:58:23;3.60;;;3.40;;
4903;SDS011;2467;48.142;11.616;2022-08-11T01:59:16;4.72;;;4.35;;
4903;SDS011;2467;48.142;11.616;2022-08-11T01:59:53;4.15;;;3.90;;
4903;SDS011;2467;48.142;11.616;2022-08-11T02:00:35;5.00;;;4.10;;
4903;SDS011;2467;48.142;11.616;2022-08-11T02:01:23;4.97;;;4.43;;
4903;SDS011;2467;48.142;11.616;2022-08-11T02:02:17;4.63;;;4.00;;
4903;SDS011;2467;48.142;11.616;2022-08-11T02:03:17;4.85;;;4.45;;
4903;SDS011;2467;48.142;11.616;2022-08-11T02:03:58;5.82;;;3.90;;
4903;SDS011;2467;48.142;11.616;2022-08-11T02:04:40;4.97;;;4.53;;
4903;SDS011;2467;48.142;11.616;2022-08-11T02:06:25;4.50;;;3.90;;
4903;SDS011;2467;48.142;11.616;2022-08-11T02:07:26;5.95;;;4.55;;
4903;SDS011;2467;48.142;11.616;2022-08-11T02:08:09;3.50;;;3.28;;
4903;SDS011;2467;48.142;11.616;2022-08-11T02:09:06;4.78;;;4.13;;
4903;SDS011;2467;48.142;11.616;2022-08-11T02:09:54;6.20;;;3.63;;
4903;SDS011;2467;48.142;11.616;2022-08-11T02:11:08;4.47;;;4.07;;
4903;SDS011;2467;48.142;11.616;2022-08-11T02:12:09;4.30;;;3.85;;
4903;SDS011;2467;48.142;11.616;2022-08-11T02:12:48;3.70;;;3.50;;
4903;SDS011;2467;48.142;11.616;2022-08-11T02:13:24;4.40;;;4.00;;
4903;SDS011;2467;48.142;11.616;2022-08-11T02:14:11;5.68;;;4.22;;
4903;SDS011;2467;48.142;11.616;2022-08-11T02:14:53;8.48;;;3.90;;
4903;SDS011;2467;48.142;11.616;2022-08-11T02:15:37;5.35;;;4.05;;
4903;SDS011;2467;48.142;11.616;2022-08-11T02:16:18;4.68;;;4.38;;
4903;SDS011;2467;48.142;11.616;2022-08-11T02:17:06;4.78;;;4.40;;
4903;SDS011;2467;48.142;11.616;2022-08-11T02:17:47;5.15;;;4.75;;
4903;SDS011;2467;48.142;11.616;2022-08-11T02:18:31;4.30;;;4.00;;
4903;SDS011;2467;48.142;11.616;2022-08-11T02:19:23;6.75;;;5.63;;
4903;SDS011;2467;48.142;11.616;2022-08-11T02:20:19;5.35;;;3.95;;
4903;SDS011;2467;48.142;11.616;2022-08-11T02:21:16;3.90;;;3.60;;
4903;SDS011;2467;48.142;11.616;2022-08-11T02:22:14;7.18;;;4.55;;
4903;SDS011;2467;48.142;11.616;2022-08-11T02:23:22;4.70;;;3.75;;
4903;SDS011;2467;48.142;11.616;2022-08-11T02:24:33;4.15;;;3.75;;
4903;SDS011;2467;48.142;11.616;2022-08-11T02:25:19;4.25;;;3.95;;
4903;SDS011;2467;48.142;11.616;2022-08-11T02:25:56;4.88;;;4.57;;
4903;SDS011;2467;48.142;11.616;2022-08-11T02:26:34;4.70;;;4.22;;
4903;SDS011;2467;48.142;11.616;2022-08-11T02:27:13;5.57;;;3.90;;
4903;SDS011;2467;48.142;11.616;2022-08-11T02:27:51;5.28;;;4.32;;
4903;SDS011;2467;48.142;11.616;2022-08-11T02:28:37;3.92;;;3.63;;
4903;SDS011;2467;48.142;11.616;2022-08-11T02:29:20;4.28;;;3.97;;
4903;SDS011;2467;48.142;11.616;2022-08-11T02:29:57;4.00;;;3.80;;
4903;SDS011;2467;48.142;11.616;2022-08-11T02:30:38;3.75;;;3.50;;
4903;SDS011;2467;48.142;11.616;2022-08-11T02:32:04;3.90;;;3.63;;
4903;SDS011;2467;48.142;11.616;2022-08-11T02:33:15;4.68;;;4.05;;
4903;SDS011;2467;48.142;11.616;2022-08-11T02:33:59;4.72;;;3.95;;
4903;SDS011;2467;48.142;11.616;2022-08-11T02:34:44;5.28;;;4.00;;
4903;SDS011;2467;48.142;11.616;2022-08-11T02:35:31;7.00;;;4.65;;
4903;SDS011;2467;48.142;11.616;2022-08-11T02:36:19;4.88;;;4.47;;
4903;SDS011;2467;48.142;11.616;2022-08-11T02:36:57;3.67;;;3.40;;
4903;SDS011;2467;48.142;11.616;2022-08-11T02:37:58;4.97;;;4.57;;
4903;SDS011;2467;48.142;11.616;2022-08-11T02:38:39;4.28;;;3.90;;
4903;SDS011;2467;48.142;11.616;2022-08-11T02:39:20;4.93;;;4.38;;
4903;SDS011;2467;48.142;11.616;2022-08-11T02:40:08;3.95;;;3.65;;
4903;SDS011;2467;48.142;11.616;2022-08-11T02:40:52;4.43;;;4.07;;
4903;SDS011;2467;48.142;11.616;2022-08-11T02:41:33;4.25;;;3.95;;
4903;SDS011;2467;48.142;11.616;2022-08-11T02:42:34;5.15;;;4.07;;
4903;SDS011;2467;48.142;11.616;2022-08-11T02:43:19;5.15;;;4.10;;
4903;SDS011;2467;48.142;11.616;2022-08-11T02:44:09;4.00;;;3.67;;
4903;SDS011;2467;48.142;11.616;2022-08-11T02:44:56;4.32;;;3.70;;
4903;SDS011;2467;48.142;11.616;2022-08-11T02:45:47;6.30;;;4.40;;
4903;SDS011;2467;48.142;11.616;2022-08-11T02:46:26;3.90;;;3.60;;
4903;SDS011;2467;48.142;11.616;2022-08-11T02:47:07;3.83;;;3.53;;
4903;SDS011;2467;48.142;11.616;2022-08-11T02:47:47;4.90;;;4.38;;
4903;SDS011;2467;48.142;11.616;2022-08-11T02:48:49;4.15;;;3.85;;
4903;SDS011;2467;48.142;11.616;2022-08-11T02:49:50;4.38;;;3.97;;
4903;SDS011;2467;48.142;11.616;2022-08-11T02:50:39;4.65;;;4.15;;
4903;SDS011;2467;48.142;11.616;2022-08-11T02:51:13;4.35;;;4.05;;
4903;SDS011;2467;48.142;11.616;2022-08-11T02:52:02;4.47;;;4.18;;
4903;SDS011;2467;48.142;11.616;2022-08-11T02:52:40;3.83;;;3.63;;
4903;SDS011;2467;48.142;11.616;2022-08-11T02:53:19;5.05;;;4.63;;
4903;SDS011;2467;48.142;11.616;2022-08-11T02:54:00;4.38;;;4.07;;
4903;SDS011;2467;48.142;11.616;2022-08-11T02:54:41;4.80;;;4.40;;
4903;SDS011;2467;48.142;11.616;2022-08-11T02:55:20;4.63;;;4.32;;
4903;SDS011;2467;48.142;11.616;2022-08-11T02:56:18;4.22;;;3.92;;
4903;SDS011;2467;48.142;11.616;2022-08-11T02:57:00;4.78;;;4.47;;
4903;SDS011;2467;48.142;11.616;2022-08-11T02:57:42;4.28;;;3.95;;
4903;SDS011;2467;48.142;11.616;2022-08-11T02:58:25;5.32;;;4.63;;
4903;SDS011;2467;48.142;11.616;2022-08-11T02:59:08;4.47;;;4.13;;
4903;SDS011;2467;48.142;11.616;2022-08-11T03:00:07;3.85;;;3.65;;
4903;SDS011;2467;48.142;11.616;2022-08-11T03:00:43;4.82;;;4.43;;
4903;SDS011;2467;48.142;11.616;2022-08-11T03:01:22;4.78;;;4.40;;
4903;SDS011;2467;48.142;11.616;2022-08-11T03:02:09;6.18;;;5.30;;
4903;SDS011;2467;48.142;11.616;2022-08-11T03:02:48;4.28;;;3.97;;
4903;SDS011;2467;48.142;11.616;2022-08-11T03:03:28;4.55;;;4.25;;
4903;SDS011;2467;48.142;11.616;2022-08-11T03:04:08;4.70;;;4.30;;
4903;SDS011;2467;48.142;11.616;2022-08-11T03:04:44;4.18;;;3.88;;
4903;SDS011;2467;48.142;11.616;2022-08-11T03:05:33;4.55;;;4.25;;
4903;SDS011;2467;48.142;11.616;2022-08-11T03:06:18;5.25;;;4.85;;
4903;SDS011;2467;48.142;11.616;2022-08-11T03:07:04;5.13;;;4.10;;
4903;SDS011;2467;48.142;11.616;2022-08-11T03:08:14;4.88;;;4.57;;
4903;SDS011;2467;48.142;11.616;2022-08-11T03:09:05;3.63;;;3.38;;
4903;SDS011;2467;48.142;11.616;2022-08-11T03:09:45;4.95;;;4.65;;
4903;SDS011;2467;48.142;11.616;2022-08-11T03:10:27;5.60;;;5.20;;
4903;SDS011;2467;48.142;11.616;2022-08-11T03:11:06;4.70;;;4.30;;
4903;SDS011;2467;48.142;11.616;2022-08-11T03:12:03;5.15;;;4.70;;
4903;SDS011;2467;48.142;11.616;2022-08-11T03:13:03;5.90;;;4.43;;
4903;SDS011;2467;48.142;11.616;2022-08-11T03:14:11;4.55;;;4.15;;
4903;SDS011;2467;48.142;11.616;2022-08-11T03:15:06;4.70;;;4.30;;
4903;SDS011;2467;48.142;11.616;2022-08-11T03:16:06;4.72;;;4.35;;
4903;SDS011;2467;48.142;11.616;2022-08-11T03:17:09;5.68;;;4.35;;
4903;SDS011;2467;48.142;11.616;2022-08-11T03:17:53;5.35;;;4.47;;
4903;SDS011;2467;48.142;11.616;2022-08-11T03:18:33;4.18;;;3.97;;
4903;SDS011;2467;48.142;11.616;2022-08-11T03:19:13;4.85;;;4.55;;
4903;SDS011;2467;48.142;11.616;2022-08-11T03:19:56;4.75;;;4.35;;
4903;SDS011;2467;48.142;11.616;2022-08-11T03:20:37;4.78;;;4.38;;
4903;SDS011;2467;48.142;11.616;2022-08-11T03:21:19;5.15;;;4.70;;
4903;SDS011;2467;48.142;11.616;2022-08-11T03:22:04;4.05;;;3.65;;
4903;SDS011;2467;48.142;11.616;2022-08-11T03:22:46;4.63;;;4.22;;
4903;SDS011;2467;48.142;11.616;2022-08-11T03:23:28;5.18;;;4.78;;
4903;SDS011;2467;48.142;11.616;2022-08-11T03:24:04;4.93;;;4.57;;
4903;SDS011;2467;48.142;11.616;2022-08-11T03:24:48;4.53;;;4.10;;
4903;SDS011;2467;48.142;11.616;2022-08-11T03:25:28;5.53;;;5.13;;
4903;SDS011;2467;48.142;11.616;2022-08-11T03:26:06;7.13;;;5.18;;
4903;SDS011;2467;48.142;11.616;2022-08-11T03:26:48;4.30;;;4.00;;
4903;SDS011;2467;48.142;11.616;2022-08-11T03:27:33;5.25;;;4.63;;
4903;SDS011;2467;48.142;11.616;2022-08-11T03:28:20;4.35;;;3.95;;
4903;SDS011;2467;48.142;11.616;2022-08-11T03:29:01;4.95;;;4.45;;
4903;SDS011;2467;48.142;11.616;2022-08-11T03:29:38;4.72;;;4.32;;
4903;SDS011;2467;48.142;11.616;2022-08-11T03:30:20;5.13;;;4.75;;
4903;SDS011;2467;48.142;11.616;2022-08-11T03:31:00;5.47;;;4.40;;
4903;SDS011;2467;48.142;11.616;2022-08-11T03:31:48;5.20;;;4.90;;
4903;SDS011;2467;48.142;11.616;2022-08-11T03:32:29;5.07;;;4.55;;
4903;SDS011;2467;48.142;11.616;2022-08-11T03:33:14;4.65;;;4.25;;
4903;SDS011;2467;48.142;11.616;2022-08-11T03:34:12;4.88;;;4.57;;
4903;SDS011;2467;48.142;11.616;2022-08-11T03:34:49;5.50;;;5.00;;
4903;SDS011;2467;48.142;11.616;2022-08-11T03:35:24;5.35;;;4.90;;
4903;SDS011;2467;48.142;11.616;2022-08-11T03:36:02;5.10;;;4.60;;
4903;SDS011;2467;48.142;11.616;2022-08-11T03:38:10;4.82;;;4.38;;
4903;SDS011;2467;48.142;11.616;2022-08-11T03:38:54;6.13;;;5.57;;
4903;SDS011;2467;48.142;11.616;2022-08-11T03:39:44;5.82;;;5.10;;
4903;SDS011;2467;48.142;11.616;2022-08-11T03:40:32;6.25;;;5.75;;
4903;SDS011;2467;48.142;11.616;2022-08-11T03:41:31;5.50;;;5.00;;
4903;SDS011;2467;48.142;11.616;2022-08-11T03:42:45;6.95;;;5.32;;
4903;SDS011;2467;48.142;11.616;2022-08-11T03:43:43;7.47;;;6.45;;
4903;SDS011;2467;48.142;11.616;2022-08-11T03:44:33;5.65;;;5.25;;
4903;SDS011;2467;48.142;11.616;2022-08-11T03:45:16;5.97;;;5.47;;
4903;SDS011;2467;48.142;11.616;2022-08-11T03:45:57;7.75;;;5.93;;
4903;SDS011;2467;48.142;11.616;2022-08-11T03:46:35;7.35;;;5.55;;
4903;SDS011;2467;48.142;11.616;2022-08-11T03:47:33;11.68;;;5.50;;
4903;SDS011;2467;48.142;11.616;2022-08-11T03:48:27;6.00;;;5.05;;
4903;SDS011;2467;48.142;11.616;2022-08-11T03:49:17;5.50;;;5.07;;
4903;SDS011;2467;48.142;11.616;2022-08-11T03:50:02;6.28;;;5.10;;
4903;SDS011;2467;48.142;11.616;2022-08-11T03:51:00;6.40;;;5.80;;
4903;SDS011;2467;48.142;11.616;2022-08-11T03:51:38;6.07;;;5.68;;
4903;SDS011;2467;48.142;11.616;2022-08-11T03:52:26;11.48;;;4.95;;
4903;SDS011;2467;48.142;11.616;2022-08-11T03:53:11;5.50;;;5.10;;
4903;SDS011;2467;48.142;11.616;2022-08-11T03:53:58;5.78;;;5.28;;
4903;SDS011;2467;48.142;11.616;2022-08-11T03:54:41;5.00;;;4.60;;
4903;SDS011;2467;48.142;11.616;2022-08-11T03:55:27;5.82;;;5.35;;
4903;SDS011;2467;48.142;11.616;2022-08-11T03:56:21;6.03;;;5.55;;
4903;SDS011;2467;48.142;11.616;2022-08-11T03:57:23;6.38;;;5.80;;
4903;SDS011;2467;48.142;11.616;2022-08-11T03:59:38;5.38;;;4.97;;
4903;SDS011;2467;48.142;11.616;2022-08-11T04:00:49;5.38;;;4.88;;
4903;SDS011;2467;48.142;11.616;2022-08-11T04:01:47;6.28;;;5.68;;
4903;SDS011;2467;48.142;11.616;2022-08-11T04:03:54;4.85;;;4.45;;
4903;SDS011;2467;48.142;11.616;2022-08-11T04:04:46;9.82;;;6.25;;
4903;SDS011;2467;48.142;11.616;2022-08-11T04:06:25;7.03;;;6.38;;
4903;SDS011;2467;48.142;11.616;2022-08-11T04:07:28;5.20;;;4.70;;
4903;SDS011;2467;48.142;11.616;2022-08-11T04:11:43;5.93;;;5.43;;
4903;SDS011;2467;48.142;11.616;2022-08-11T04:13:48;5.15;;;4.82;;
4903;SDS011;2467;48.142;11.616;2022-08-11T04:15:31;6.32;;;5.72;;
4903;SDS011;2467;48.142;11.616;2022-08-11T04:16:41;5.00;;;4.60;;
4903;SDS011;2467;48.142;11.616;2022-08-11T04:17:23;5.15;;;4.72;;
4903;SDS011;2467;48.142;11.616;2022-08-11T04:18:45;5.38;;;4.97;;
4903;SDS011;2467;48.142;11.616;2022-08-11T04:19:43;5.20;;;4.50;;
4903;SDS011;2467;48.142;11.616;2022-08-11T04:21:49;5.43;;;4.97;;
4903;SDS011;2467;48.142;11.616;2022-08-11T04:22:45;5.50;;;4.97;;
4903;SDS011;2467;48.142;11.616;2022-08-11T04:23:41;5.80;;;5.40;;
4903;SDS011;2467;48.142;11.616;2022-08-11T04:25:03;7.00;;;6.22;;
4903;SDS011;2467;48.142;11.616;2022-08-11T04:26:01;5.18;;;4.70;;
4903;SDS011;2467;48.142;11.616;2022-08-11T04:28:11;5.50;;;5.10;;
4903;SDS011;2467;48.142;11.616;2022-08-11T04:29:24;5.50;;;5.15;;
4903;SDS011;2467;48.142;11.616;2022-08-11T04:30:41;7.93;;;5.10;;
4903;SDS011;2467;48.142;11.616;2022-08-11T04:31:43;4.95;;;4.65;;
4903;SDS011;2467;48.142;11.616;2022-08-11T04:33:52;4.80;;;4.38;;
4903;SDS011;2467;48.142;11.616;2022-08-11T04:35:46;5.40;;;4.95;;
4903;SDS011;2467;48.142;11.616;2022-08-11T04:39:07;5.22;;;4.63;;
4903;SDS011;2467;48.142;11.616;2022-08-11T04:39:56;6.35;;;5.00;;
4903;SDS011;2467;48.142;11.616;2022-08-11T04:41:50;5.72;;;5.18;;
4903;SDS011;2467;48.142;11.616;2022-08-11T04:46:59;5.03;;;4.70;;
4903;SDS011;2467;48.142;11.616;2022-08-11T04:48:38;5.20;;;4.72;;
4903;SDS011;2467;48.142;11.616;2022-08-11T04:49:51;7.25;;;6.00;;
4903;SDS011;2467;48.142;11.616;2022-08-11T04:50:54;8.63;;;4.88;;
4903;SDS011;2467;48.142;11.616;2022-08-11T04:52:08;5.78;;;5.28;;
4903;SDS011;2467;48.142;11.616;2022-08-11T04:53:26;5.95;;;5.20;;
4903;SDS011;2467;48.142;11.616;2022-08-11T04:54:36;5.45;;;4.95;;
4903;SDS011;2467;48.142;11.616;2022-08-11T04:55:51;5.82;;;5.40;;
4903;SDS011;2467;48.142;11.616;2022-08-11T04:56:59;5.85;;;5.35;;
4903;SDS011;2467;48.142;11.616;2022-08-11T04:57:58;5.72;;;5.22;;
4903;SDS011;2467;48.142;11.616;2022-08-11T04:59:07;6.10;;;5.50;;
4903;SDS011;2467;48.142;11.616;2022-08-11T05:00:15;6.30;;;5.80;;
4903;SDS011;2467;48.142;11.616;2022-08-11T05:01:23;5.72;;;5.07;;
4903;SDS011;2467;48.142;11.616;2022-08-11T05:02:24;5.38;;;4.97;;
4903;SDS011;2467;48.142;11.616;2022-08-11T05:04:37;5.35;;;4.95;;
4903;SDS011;2467;48.142;11.616;2022-08-11T05:05:45;5.93;;;5.47;;
4903;SDS011;2467;48.142;11.616;2022-08-11T05:07:58;5.57;;;5.28;;
4903;SDS011;2467;48.142;11.616;2022-08-11T05:09:01;10.23;;;5.40;;
4903;SDS011;2467;48.142;11.616;2022-08-11T05:09:59;5.97;;;5.40;;
4903;SDS011;2467;48.142;11.616;2022-08-11T05:10:45;5.40;;;4.90;;
4903;SDS011;2467;48.142;11.616;2022-08-11T05:11:37;5.13;;;4.63;;
4903;SDS011;2467;48.142;11.616;2022-08-11T05:12:34;5.80;;;5.30;;
4903;SDS011;2467;48.142;11.616;2022-08-11T05:13:21;5.30;;;5.00;;
4903;SDS011;2467;48.142;11.616;2022-08-11T05:14:22;6.40;;;5.80;;
4903;SDS011;2467;48.142;11.616;2022-08-11T05:15:23;8.93;;;5.50;;
4903;SDS011;2467;48.142;11.616;2022-08-11T05:16:26;5.43;;;5.00;;
4903;SDS011;2467;48.142;11.616;2022-08-11T05:18:34;6.35;;;5.85;;
4903;SDS011;2467;48.142;11.616;2022-08-11T05:19:35;7.97;;;6.07;;
4903;SDS011;2467;48.142;11.616;2022-08-11T05:20:26;6.28;;;5.78;;
4903;SDS011;2467;48.142;11.616;2022-08-11T05:21:17;9.35;;;5.28;;
4903;SDS011;2467;48.142;11.616;2022-08-11T05:22:16;5.90;;;5.40;;
4903;SDS011;2467;48.142;11.616;2022-08-11T05:23:08;5.15;;;4.68;;
4903;SDS011;2467;48.142;11.616;2022-08-11T05:24:02;5.25;;;4.80;;
4903;SDS011;2467;48.142;11.616;2022-08-11T05:24:58;5.40;;;4.90;;
4903;SDS011;2467;48.142;11.616;2022-08-11T05:26:15;6.35;;;5.43;;
4903;SDS011;2467;48.142;11.616;2022-08-11T05:27:18;5.90;;;5.38;;
4903;SDS011;2467;48.142;11.616;2022-08-11T05:28:13;6.28;;;5.68;;
4903;SDS011;2467;48.142;11.616;2022-08-11T05:29:23;6.63;;;5.75;;
4903;SDS011;2467;48.142;11.616;2022-08-11T05:30:25;6.82;;;4.85;;
4903;SDS011;2467;48.142;11.616;2022-08-11T05:31:18;5.68;;;5.18;;
4903;SDS011;2467;48.142;11.616;2022-08-11T05:32:14;5.07;;;4.57;;
4903;SDS011;2467;48.142;11.616;2022-08-11T05:33:07;4.93;;;4.47;;
4903;SDS011;2467;48.142;11.616;2022-08-11T05:34:01;6.00;;;5.50;;
4903;SDS011;2467;48.142;11.616;2022-08-11T05:34:57;4.88;;;4.47;;
4903;SDS011;2467;48.142;11.616;2022-08-11T05:35:37;4.80;;;4.45;;
4903;SDS011;2467;48.142;11.616;2022-08-11T05:36:33;4.93;;;4.43;;
4903;SDS011;2467;48.142;11.616;2022-08-11T05:37:13;5.40;;;5.00;;
4903;SDS011;2467;48.142;11.616;2022-08-11T05:37:57;5.53;;;5.13;;
4903;SDS011;2467;48.142;11.616;2022-08-11T05:38:50;5.13;;;4.82;;
4903;SDS011;2467;48.142;11.616;2022-08-11T05:39:47;13.95;;;5.50;;
4903;SDS011;2467;48.142;11.616;2022-08-11T05:40:46;5.85;;;5.13;;
4903;SDS011;2467;48.142;11.616;2022-08-11T05:41:38;4.95;;;4.55;;
4903;SDS011;2467;48.142;11.616;2022-08-11T05:42:30;4.45;;;4.05;;
4903;SDS011;2467;48.142;11.616;2022-08-11T05:43:22;4.97;;;4.47;;
4903;SDS011;2467;48.142;11.616;2022-08-11T05:44:33;4.45;;;4.05;;
4903;SDS011;2467;48.142;11.616;2022-08-11T05:45:26;5.65;;;4.88;;
4903;SDS011;2467;48.142;11.616;2022-08-11T05:46:38;5.18;;;4.78;;
4903;SDS011;2467;48.142;11.616;2022-08-11T05:47:29;5.28;;;4.57;;
4903;SDS011;2467;48.142;11.616;2022-08-11T05:48:23;6.20;;;5.72;;
4903;SDS011;2467;48.142;11.616;2022-08-11T05:49:21;4.13;;;3.83;;